createdAt,value
2024-02-17T00:00:31.331Z,142.67
2024-02-17T00:01:31.513Z,139.68
2024-02-17T00:02:31.399Z,142.00
2024-02-17T00:03:31.643Z,146.51
2024-02-17T00:04:31.547Z,149.39
2024-02-17T00:05:31.655Z,145.56
2024-02-17T00:06:31.735Z,149.23
2024-02-17T00:07:31.749Z,146.01
2024-02-17T00:08:31.800Z,145.78
2024-02-17T00:09:31.877Z,147.91
2024-02-17T00:10:31.936Z,146.21
2024-02-17T00:11:32.006Z,143.18
2024-02-17T00:12:32.042Z,146.98
2024-02-17T00:13:32.078Z,139.84
2024-02-17T00:14:32.154Z,142.18
2024-02-17T00:15:32.230Z,141.43
2024-02-17T00:16:32.270Z,137.00
2024-02-17T00:17:32.348Z,138.98
2024-02-17T00:18:32.453Z,140.06
2024-02-17T00:19:32.566Z,137.74
2024-02-17T00:20:32.563Z,135.88
2024-02-17T00:21:32.574Z,133.36
2024-02-17T00:22:32.644Z,131.00
2024-02-17T00:23:32.686Z,139.69
2024-02-17T00:24:32.850Z,129.57
2024-02-17T00:25:32.797Z,132.95
2024-02-17T00:26:32.873Z,133.07
2024-02-17T00:27:33.006Z,129.30
2024-02-17T00:28:33.023Z,133.00
2024-02-17T00:29:33.141Z,134.29
2024-02-17T00:30:33.172Z,137.35
2024-02-17T00:31:33.188Z,131.75
2024-02-17T00:32:33.256Z,131.56
2024-02-17T00:33:33.394Z,135.48
2024-02-17T00:34:33.519Z,140.74
2024-02-17T00:35:33.435Z,136.71
2024-02-17T00:36:33.540Z,137.90
2024-02-17T00:37:33.559Z,134.48
2024-02-17T00:38:33.636Z,135.18
2024-02-17T00:39:33.710Z,140.50
2024-02-17T00:40:33.760Z,139.88
2024-02-17T00:41:33.825Z,137.38
2024-02-17T00:42:33.949Z,144.29
2024-02-17T00:43:33.942Z,141.21
2024-02-17T00:44:33.990Z,145.16
2024-02-17T00:45:34.075Z,145.06
2024-02-17T00:46:34.102Z,148.98
2024-02-17T00:47:34.157Z,152.01
2024-02-17T00:48:34.242Z,150.33
2024-02-17T00:49:34.248Z,159.59
2024-02-17T00:50:34.218Z,161.18
2024-02-17T00:51:34.327Z,161.06
2024-02-17T00:52:34.313Z,166.41
2024-02-17T00:53:34.349Z,166.98
2024-02-17T00:54:34.396Z,169.14
2024-02-17T00:55:34.411Z,168.27
2024-02-17T00:56:34.465Z,169.62
2024-02-17T00:57:34.510Z,169.88
2024-02-17T00:58:34.529Z,168.04
2024-02-17T00:59:34.596Z,166.11
2024-02-17T01:00:34.647Z,172.11
2024-02-17T01:01:39.268Z,167.59
2024-02-17T01:02:35.666Z,167.70
2024-02-17T01:03:34.754Z,167.76
2024-02-17T01:04:34.670Z,168.07
2024-02-17T01:05:34.698Z,165.19
2024-02-17T01:06:34.887Z,165.30
2024-02-17T01:07:34.690Z,163.54
2024-02-17T01:08:34.676Z,162.59
2024-02-17T01:09:34.701Z,162.37
2024-02-17T01:10:34.750Z,159.26
2024-02-17T01:11:34.758Z,162.18
2024-02-17T01:12:34.825Z,163.39
2024-02-17T01:13:34.836Z,160.44
2024-02-17T01:14:34.879Z,157.12
2024-02-17T01:15:34.983Z,155.82
2024-02-17T01:16:34.933Z,155.07
2024-02-17T01:17:35.042Z,156.12
2024-02-17T01:18:35.139Z,153.67
2024-02-17T01:19:35.283Z,155.54
2024-02-17T01:20:35.140Z,152.48
2024-02-17T01:21:35.391Z,156.57
2024-02-17T01:22:35.267Z,152.23
2024-02-17T01:23:35.299Z,154.09
2024-02-17T01:24:35.403Z,150.95
2024-02-17T01:25:35.396Z,151.24
2024-02-17T01:26:35.441Z,152.93
2024-02-17T01:27:35.565Z,152.80
2024-02-17T01:28:35.618Z,148.97
2024-02-17T01:29:35.600Z,150.51
2024-02-17T01:30:35.746Z,147.95
2024-02-17T01:31:35.740Z,151.82
2024-02-17T01:32:35.831Z,147.91
2024-02-17T01:33:35.906Z,147.98
2024-02-17T01:34:35.972Z,148.67
2024-02-17T01:35:35.970Z,149.49
2024-02-17T01:36:36.067Z,151.36
2024-02-17T01:37:36.105Z,147.92
2024-02-17T01:38:36.131Z,145.28
2024-02-17T01:39:36.214Z,149.25
2024-02-17T01:40:36.268Z,149.41
2024-02-17T01:41:36.316Z,145.34
2024-02-17T01:42:36.427Z,146.83
2024-02-17T01:43:36.460Z,142.18
2024-02-17T01:44:36.516Z,143.22
2024-02-17T01:45:36.608Z,141.59
2024-02-17T01:46:36.632Z,138.02
2024-02-17T01:47:36.907Z,136.12
2024-02-17T01:48:36.907Z,136.38
2024-02-17T01:49:36.788Z,137.62
2024-02-17T01:50:36.836Z,137.75
2024-02-17T01:51:36.940Z,133.62
2024-02-17T01:52:39.365Z,139.78
2024-02-17T01:53:36.945Z,132.01
2024-02-17T01:54:36.962Z,133.16
2024-02-17T01:55:36.959Z,140.35
2024-02-17T01:56:36.965Z,134.30
2024-02-17T01:57:37.033Z,138.26
2024-02-17T01:58:37.005Z,135.05
2024-02-17T01:59:36.966Z,136.07
2024-02-17T02:00:37.058Z,138.30
2024-02-17T02:01:37.013Z,133.16
2024-02-17T02:02:36.981Z,133.02
2024-02-17T02:03:37.108Z,136.38
2024-02-17T02:04:37.020Z,134.95
2024-02-17T02:05:37.005Z,132.99
2024-02-17T02:06:36.999Z,134.39
2024-02-17T02:07:36.998Z,128.60
2024-02-17T02:08:36.970Z,133.80
2024-02-17T02:09:37.022Z,128.86
2024-02-17T02:10:36.999Z,127.52
2024-02-17T02:11:37.016Z,127.81
2024-02-17T02:12:37.077Z,130.60
2024-02-17T02:13:37.040Z,132.35
2024-02-17T02:14:36.987Z,135.72
2024-02-17T02:15:45.022Z,133.14
2024-02-17T02:16:38.016Z,132.86
2024-02-17T02:17:37.072Z,133.59
2024-02-17T02:18:37.037Z,133.75
2024-02-17T02:19:37.097Z,139.35
2024-02-17T02:20:37.011Z,141.90
2024-02-17T02:21:37.057Z,139.09
2024-02-17T02:22:37.032Z,144.33
2024-02-17T02:23:37.025Z,145.73
2024-02-17T02:24:37.030Z,144.37
2024-02-17T02:25:37.075Z,146.14
2024-02-17T02:26:37.143Z,144.21
2024-02-17T02:27:37.376Z,147.07
2024-02-17T02:28:37.235Z,142.97
2024-02-17T02:29:37.274Z,142.84
2024-02-17T02:30:37.354Z,145.27
2024-02-17T02:31:37.398Z,146.18
2024-02-17T02:32:37.485Z,141.04
2024-02-17T02:33:37.591Z,141.01
2024-02-17T02:34:37.706Z,135.58
2024-02-17T02:35:37.615Z,137.68
2024-02-17T02:36:37.723Z,137.75
2024-02-17T02:37:37.737Z,140.58
2024-02-17T02:38:37.780Z,138.52
2024-02-17T02:39:37.887Z,134.61
2024-02-17T02:40:37.883Z,140.25
2024-02-17T02:41:37.937Z,137.11
2024-02-17T02:42:38.034Z,142.12
2024-02-17T02:43:38.041Z,139.32
2024-02-17T02:44:38.093Z,143.50
2024-02-17T02:45:38.183Z,144.28
2024-02-17T02:46:38.205Z,135.25
2024-02-17T02:47:38.277Z,135.34
2024-02-17T02:48:38.390Z,141.20
2024-02-17T02:49:38.432Z,135.27
2024-02-17T02:50:38.394Z,137.74
2024-02-17T02:51:38.510Z,135.88
2024-02-17T02:52:38.523Z,136.44
2024-02-17T02:53:38.543Z,137.51
2024-02-17T02:54:38.644Z,139.72
2024-02-17T02:55:38.642Z,140.32
2024-02-17T02:56:38.687Z,135.09
2024-02-17T02:57:38.810Z,135.25
2024-02-17T02:58:38.810Z,129.98
2024-02-17T02:59:38.858Z,138.58
2024-02-17T03:00:38.965Z,133.07
2024-02-17T03:01:39.003Z,128.96
2024-02-17T03:02:38.989Z,137.37
2024-02-17T03:03:39.163Z,136.91
2024-02-17T03:04:39.247Z,132.99
2024-02-17T03:05:39.242Z,137.60
2024-02-17T03:06:39.294Z,133.51
2024-02-17T03:07:39.285Z,129.95
2024-02-17T03:08:39.325Z,133.82
2024-02-17T03:09:39.425Z,135.61
2024-02-17T03:10:39.394Z,131.88
2024-02-17T03:11:39.507Z,130.56
2024-02-17T03:12:39.558Z,131.20
2024-02-17T03:13:39.545Z,130.25
2024-02-17T03:14:39.595Z,140.55
2024-02-17T03:15:39.727Z,134.98
2024-02-17T03:16:39.723Z,141.62
2024-02-17T03:17:39.825Z,139.88
2024-02-17T03:18:39.949Z,141.68
2024-02-17T03:19:39.957Z,131.02
2024-02-17T03:20:39.941Z,134.18
2024-02-17T03:21:40.033Z,137.06
2024-02-17T03:22:40.103Z,132.36
2024-02-17T03:23:40.111Z,134.23
2024-02-17T03:24:40.226Z,134.99
2024-02-17T03:25:40.251Z,138.62
2024-02-17T03:26:40.308Z,139.62
2024-02-17T03:27:40.420Z,139.28
2024-02-17T03:28:40.407Z,140.87
2024-02-17T03:29:40.484Z,134.38
2024-02-17T03:30:40.593Z,133.07
2024-02-17T03:31:40.569Z,139.57
2024-02-17T03:32:40.677Z,134.84
2024-02-17T03:33:40.930Z,134.34
2024-02-17T03:34:41.108Z,141.61
2024-02-17T03:35:40.843Z,142.84
2024-02-17T03:36:40.907Z,143.37
2024-02-17T03:37:40.945Z,140.55
2024-02-17T03:38:40.968Z,146.79
2024-02-17T03:39:41.130Z,142.92
2024-02-17T03:40:41.072Z,145.54
2024-02-17T03:41:41.122Z,146.40
2024-02-17T03:42:41.223Z,143.78
2024-02-17T03:43:41.209Z,139.80
2024-02-17T03:44:41.236Z,140.82
2024-02-17T03:45:41.350Z,140.18
2024-02-17T03:46:41.346Z,144.34
2024-02-17T03:47:41.397Z,144.45
2024-02-17T03:48:41.735Z,140.26
2024-02-17T03:49:41.786Z,145.80
2024-02-17T03:50:41.621Z,137.17
2024-02-17T03:51:41.678Z,142.39
2024-02-17T03:52:41.749Z,146.03
2024-02-17T03:53:41.817Z,146.12
2024-02-17T03:54:41.912Z,142.78
2024-02-17T03:55:41.893Z,145.27
2024-02-17T03:56:41.955Z,139.51
2024-02-17T03:57:42.061Z,148.11
2024-02-17T03:58:42.032Z,142.96
2024-02-17T03:59:42.101Z,144.19
2024-02-17T04:00:42.183Z,138.58
2024-02-17T04:01:42.252Z,137.86
2024-02-17T04:02:42.286Z,137.46
2024-02-17T04:03:42.395Z,142.65
2024-02-17T04:04:42.497Z,141.30
2024-02-17T04:05:42.531Z,139.34
2024-02-17T04:06:42.610Z,140.80
2024-02-17T04:07:42.942Z,143.65
2024-02-17T04:08:42.665Z,138.79
2024-02-17T04:09:42.820Z,136.70
2024-02-17T04:10:42.800Z,138.12
2024-02-17T04:11:42.869Z,139.79
2024-02-17T04:12:42.982Z,140.23
2024-02-17T04:13:42.946Z,139.76
2024-02-17T04:14:42.996Z,138.16
2024-02-17T04:15:43.129Z,139.64
2024-02-17T04:16:43.121Z,140.41
2024-02-17T04:17:43.172Z,141.67
2024-02-17T04:18:43.303Z,134.31
2024-02-17T04:19:43.323Z,142.23
2024-02-17T04:20:43.331Z,142.71
2024-02-17T04:21:43.427Z,135.09
2024-02-17T04:22:43.451Z,139.07
2024-02-17T04:23:43.496Z,135.96
2024-02-17T04:24:43.633Z,141.96
2024-02-17T04:25:43.651Z,140.44
2024-02-17T04:26:43.700Z,143.42
2024-02-17T04:27:43.866Z,136.62
2024-02-17T04:28:43.815Z,139.48
2024-02-17T04:29:43.869Z,142.31
2024-02-17T04:30:43.974Z,146.12
2024-02-17T04:31:43.990Z,139.11
2024-02-17T04:32:44.042Z,146.67
2024-02-17T04:33:44.154Z,141.74
2024-02-17T04:34:44.255Z,142.23
2024-02-17T04:35:44.166Z,150.09
2024-02-17T04:36:44.358Z,147.61
2024-02-17T04:37:44.268Z,147.19
2024-02-17T04:38:44.267Z,151.80
2024-02-17T04:39:44.321Z,150.09
2024-02-17T04:40:44.333Z,144.54
2024-02-17T04:41:44.406Z,153.23
2024-02-17T04:42:44.517Z,148.92
2024-02-17T04:43:44.471Z,153.29
2024-02-17T04:44:44.520Z,153.75
2024-02-17T04:45:44.711Z,153.94
2024-02-17T04:46:44.617Z,154.74
2024-02-17T04:47:44.756Z,153.16
2024-02-17T04:48:44.770Z,160.95
2024-02-17T04:49:44.828Z,153.81
2024-02-17T04:50:44.833Z,155.23
2024-02-17T04:51:44.890Z,163.05
2024-02-17T04:52:44.936Z,160.32
2024-02-17T04:53:52.290Z,50.00
2024-02-17T04:54:52.353Z,50.00
2024-02-17T04:55:52.281Z,50.00
2024-02-17T04:56:52.264Z,50.00
2024-02-17T04:57:52.290Z,50.00
2024-02-17T04:58:52.276Z,51.26
2024-02-17T04:59:52.272Z,50.53
2024-02-17T05:00:52.363Z,56.40
2024-02-17T05:01:52.303Z,58.10
2024-02-17T05:02:52.276Z,57.71
2024-02-17T05:03:52.413Z,56.41
2024-02-17T05:04:52.318Z,52.01
2024-02-17T05:05:52.285Z,57.53
2024-02-17T05:06:52.326Z,56.25
2024-02-17T05:07:52.290Z,59.97
2024-02-17T05:08:52.289Z,55.21
2024-02-17T05:09:52.346Z,55.51
2024-02-17T05:10:52.286Z,56.29
2024-02-17T05:11:52.324Z,60.71
2024-02-17T05:12:52.450Z,59.36
2024-02-17T05:13:52.289Z,59.67
2024-02-17T05:14:52.318Z,64.19
2024-02-17T05:15:52.393Z,58.78
2024-02-17T05:16:52.431Z,60.15
2024-02-17T05:17:52.567Z,59.86
2024-02-17T05:18:52.735Z,60.57
2024-02-17T05:19:52.656Z,59.70
2024-02-17T05:20:52.692Z,64.02
2024-02-17T05:21:52.809Z,56.10
2024-02-17T05:22:52.859Z,59.97
2024-02-17T05:23:52.889Z,59.88
2024-02-17T05:24:53.041Z,59.89
2024-02-17T05:25:53.023Z,55.28
2024-02-17T05:26:53.073Z,62.20
2024-02-17T05:27:53.269Z,55.00
2024-02-17T05:28:53.206Z,53.74
2024-02-17T05:29:53.306Z,59.06
2024-02-17T05:30:53.370Z,57.11
2024-02-17T05:31:53.422Z,54.18
2024-02-17T05:32:53.508Z,55.58
2024-02-17T05:33:53.650Z,54.55
2024-02-17T05:34:55.110Z,53.96
2024-02-17T05:35:53.663Z,51.87
2024-02-17T05:36:53.797Z,52.41
2024-02-17T05:37:53.812Z,54.32
2024-02-17T05:38:53.856Z,57.46
2024-02-17T05:39:53.985Z,61.12
2024-02-17T05:40:53.988Z,60.15
2024-02-17T05:41:54.066Z,54.58
2024-02-17T05:42:54.172Z,52.00
2024-02-17T05:43:54.238Z,54.00
2024-02-17T05:44:54.285Z,54.05
2024-02-17T05:45:54.405Z,51.35
2024-02-17T05:46:54.399Z,52.41
2024-02-17T05:47:54.531Z,50.45
2024-02-17T05:48:54.662Z,54.24
2024-02-17T05:49:54.737Z,57.56
2024-02-17T05:50:54.672Z,51.93
2024-02-17T05:51:54.812Z,55.52
2024-02-17T05:52:54.830Z,49.65
2024-02-17T05:53:54.875Z,50.98
2024-02-17T05:54:55.053Z,55.77
2024-02-17T05:55:54.998Z,54.26
2024-02-17T05:56:55.075Z,54.28
2024-02-17T05:57:55.184Z,54.16
2024-02-17T05:58:57.126Z,53.42
2024-02-17T05:59:55.196Z,54.27
2024-02-17T06:00:55.278Z,50.78
2024-02-17T06:01:55.260Z,52.50
2024-02-17T06:02:55.210Z,53.30
2024-02-17T06:03:55.292Z,56.24
2024-02-17T06:04:55.324Z,53.83
2024-02-17T06:05:55.228Z,51.60
2024-02-17T06:06:55.317Z,54.33
2024-02-17T06:07:55.230Z,54.75
2024-02-17T06:08:55.214Z,58.36
2024-02-17T06:09:55.220Z,53.21
2024-02-17T06:10:55.289Z,59.56
2024-02-17T06:11:55.301Z,50.00
2024-02-17T06:12:55.306Z,51.52
2024-02-17T06:13:56.527Z,54.99
2024-02-17T06:14:55.217Z,53.91
2024-02-17T06:15:55.249Z,56.59
2024-02-17T06:16:55.214Z,56.48
2024-02-17T06:17:55.313Z,54.11
2024-02-17T06:18:55.418Z,52.75
2024-02-17T06:19:55.417Z,56.00
2024-02-17T06:20:55.281Z,57.27
2024-02-17T06:21:55.369Z,58.88
2024-02-17T06:22:55.451Z,54.24
2024-02-17T06:23:55.473Z,58.44
2024-02-17T06:24:55.585Z,63.18
2024-02-17T06:25:55.603Z,62.87
2024-02-17T06:26:55.679Z,66.52
2024-02-17T06:27:55.821Z,59.58
2024-02-17T06:28:55.781Z,62.75
2024-02-17T06:29:55.880Z,67.16
2024-02-17T06:30:55.959Z,62.25
2024-02-17T06:31:55.980Z,64.06
2024-02-17T06:32:56.116Z,62.51
2024-02-17T06:33:56.189Z,66.44
2024-02-17T06:34:56.225Z,61.56
2024-02-17T06:35:56.244Z,63.07
2024-02-17T06:36:56.348Z,63.78
2024-02-17T06:37:56.405Z,60.72
2024-02-17T06:38:56.450Z,57.92
2024-02-17T06:39:56.555Z,63.05
2024-02-17T06:40:56.591Z,62.96
2024-02-17T06:41:56.648Z,63.02
2024-02-17T06:42:56.813Z,61.37
2024-02-17T06:43:56.767Z,59.45
2024-02-17T06:44:56.839Z,58.89
2024-02-17T06:45:56.992Z,58.42
2024-02-17T06:46:56.974Z,62.49
2024-02-17T06:47:57.111Z,53.05
2024-02-17T06:48:57.183Z,57.02
2024-02-17T06:49:57.270Z,52.35
2024-02-17T06:50:57.237Z,57.71
2024-02-17T06:51:57.345Z,55.52
2024-02-17T06:52:57.371Z,58.26
2024-02-17T06:53:57.407Z,55.84
2024-02-17T06:54:57.509Z,54.66
2024-02-17T06:55:57.537Z,57.61
2024-02-17T06:56:57.601Z,55.84
2024-02-17T06:57:57.757Z,50.00
2024-02-17T06:58:57.725Z,50.07
2024-02-17T06:59:57.803Z,55.83
2024-02-17T07:00:57.906Z,56.90
2024-02-17T07:01:58.005Z,58.25
2024-02-17T07:02:58.018Z,50.88
2024-02-17T07:03:58.117Z,52.36
2024-02-17T07:04:58.181Z,53.90
2024-02-17T07:05:58.264Z,52.40
2024-02-17T07:06:58.311Z,58.06
2024-02-17T07:07:58.380Z,55.85
2024-02-17T07:08:58.437Z,61.14
2024-02-17T07:09:58.517Z,53.83
2024-02-17T07:10:58.644Z,64.48
2024-02-17T07:11:58.625Z,56.56
2024-02-17T07:12:58.722Z,56.37
2024-02-17T07:13:58.750Z,59.10
2024-02-17T07:14:58.820Z,51.68
2024-02-17T07:15:58.913Z,54.33
2024-02-17T07:16:58.960Z,60.02
2024-02-17T07:17:59.102Z,54.05
2024-02-17T07:18:59.273Z,62.58
2024-02-17T07:19:59.214Z,63.15
2024-02-17T07:20:59.224Z,67.14
2024-02-17T07:21:59.352Z,73.21
2024-02-17T07:22:59.364Z,75.86
2024-02-17T07:23:59.448Z,81.16
2024-02-17T07:24:59.481Z,74.64
2024-02-17T07:25:59.564Z,77.66
2024-02-17T07:26:59.615Z,76.54
2024-02-17T07:27:59.713Z,82.63
2024-02-17T07:28:59.817Z,84.06
2024-02-17T07:29:59.810Z,84.62
2024-02-17T07:30:59.949Z,81.46
2024-02-17T07:31:59.965Z,91.22
2024-02-17T07:33:00.069Z,89.66
2024-02-17T07:34:00.277Z,90.26
2024-02-17T07:35:00.253Z,89.69
2024-02-17T07:36:00.212Z,89.31
2024-02-17T07:37:00.362Z,91.17
2024-02-17T07:38:00.347Z,93.48
2024-02-17T07:39:00.429Z,99.01
2024-02-17T07:40:00.473Z,93.88
2024-02-17T07:41:00.576Z,93.71
2024-02-17T07:42:00.694Z,101.68
2024-02-17T07:43:00.840Z,97.12
2024-02-17T07:44:00.779Z,94.02
2024-02-17T07:45:00.850Z,92.91
2024-02-17T07:46:00.899Z,95.76
2024-02-17T07:47:00.872Z,93.48
2024-02-17T07:48:01.047Z,93.26
2024-02-17T07:49:01.131Z,92.17
2024-02-17T07:50:01.295Z,92.98
2024-02-17T07:51:01.133Z,93.26
2024-02-17T07:52:01.280Z,94.23
2024-02-17T07:53:01.261Z,89.18
2024-02-17T07:54:01.828Z,93.77
2024-02-17T07:55:01.461Z,95.87
2024-02-17T07:56:01.423Z,89.53
2024-02-17T07:57:01.486Z,87.94
2024-02-17T07:58:01.611Z,93.50
2024-02-17T07:59:01.603Z,90.76
2024-02-17T08:00:01.658Z,91.04
2024-02-17T08:01:01.833Z,91.42
2024-02-17T08:02:01.842Z,91.36
2024-02-17T08:03:01.888Z,87.30
2024-02-17T08:04:02.072Z,88.45
2024-02-17T08:05:02.045Z,88.07
2024-02-17T08:06:02.156Z,86.96
2024-02-17T08:07:02.131Z,88.15
2024-02-17T08:08:02.216Z,84.38
2024-02-17T08:09:02.212Z,87.86
2024-02-17T08:10:02.289Z,84.11
2024-02-17T08:11:02.345Z,84.34
2024-02-17T08:12:02.385Z,77.59
2024-02-17T08:13:02.497Z,82.21
2024-02-17T08:14:02.502Z,82.82
2024-02-17T08:15:02.552Z,86.73
2024-02-17T08:16:02.628Z,79.62
2024-02-17T08:17:02.689Z,82.58
2024-02-17T08:18:02.838Z,82.68
2024-02-17T08:19:02.932Z,84.09
2024-02-17T08:20:05.057Z,81.56
2024-02-17T08:21:02.837Z,85.53
2024-02-17T08:22:02.866Z,79.80
2024-02-17T08:23:02.862Z,84.15
2024-02-17T08:24:02.856Z,82.27
2024-02-17T08:25:02.861Z,88.95
2024-02-17T08:26:04.681Z,81.22
2024-02-17T08:27:02.894Z,81.40
2024-02-17T08:28:03.051Z,81.36
2024-02-17T08:29:02.993Z,81.23
2024-02-17T08:30:03.069Z,78.10
2024-02-17T08:31:03.142Z,81.29
2024-02-17T08:32:03.222Z,81.45
2024-02-17T08:33:03.517Z,79.28
2024-02-17T08:34:03.432Z,82.61
2024-02-17T08:35:03.467Z,77.98
2024-02-17T08:36:03.401Z,81.95
2024-02-17T08:37:03.460Z,80.53
2024-02-17T08:38:03.536Z,77.06
2024-02-17T08:39:03.561Z,83.01
2024-02-17T08:40:03.631Z,75.29
2024-02-17T08:41:03.686Z,84.75
2024-02-17T08:42:03.728Z,80.98
2024-02-17T08:43:03.785Z,77.67
2024-02-17T08:44:03.859Z,80.85
2024-02-17T08:45:03.913Z,80.94
2024-02-17T08:46:03.991Z,83.25
2024-02-17T08:47:04.051Z,83.93
2024-02-17T08:48:04.190Z,88.56
2024-02-17T08:49:04.258Z,82.50
2024-02-17T08:50:04.288Z,85.21
2024-02-17T08:51:04.445Z,83.09
2024-02-17T08:52:04.356Z,84.57
2024-02-17T08:53:04.435Z,86.09
2024-02-17T08:54:04.451Z,86.67
2024-02-17T08:55:04.484Z,82.46
2024-02-17T08:56:04.576Z,84.32
2024-02-17T08:57:04.659Z,84.18
2024-02-17T08:58:04.674Z,84.51
2024-02-17T08:59:04.736Z,86.63
2024-02-17T09:00:04.807Z,84.83
2024-02-17T09:01:04.903Z,82.20
2024-02-17T09:02:04.903Z,79.28
2024-02-17T09:03:05.008Z,78.52
2024-02-17T09:04:05.325Z,82.99
2024-02-17T09:05:05.082Z,78.25
2024-02-17T09:06:05.120Z,78.62
2024-02-17T09:07:05.352Z,78.95
2024-02-17T09:08:05.241Z,83.80
2024-02-17T09:09:05.297Z,79.07
2024-02-17T09:10:05.350Z,82.66
2024-02-17T09:11:05.422Z,77.01
2024-02-17T09:12:05.444Z,78.07
2024-02-17T09:13:05.506Z,79.19
2024-02-17T09:14:05.540Z,76.40
2024-02-17T09:15:05.607Z,78.38
2024-02-17T09:16:05.648Z,77.74
2024-02-17T09:17:05.706Z,79.23
2024-02-17T09:18:05.791Z,80.03
2024-02-17T09:19:05.838Z,81.86
2024-02-17T09:20:05.983Z,81.34
2024-02-17T09:21:05.922Z,86.56
2024-02-17T09:22:05.985Z,81.71
2024-02-17T09:23:06.014Z,84.94
2024-02-17T09:24:06.099Z,84.85
2024-02-17T09:25:06.117Z,90.08
2024-02-17T09:26:06.174Z,84.24
2024-02-17T09:27:06.220Z,86.77
2024-02-17T09:28:06.325Z,85.63
2024-02-17T09:29:06.355Z,88.25
2024-02-17T09:30:06.386Z,84.50
2024-02-17T09:31:06.444Z,87.54
2024-02-17T09:32:06.474Z,83.31
2024-02-17T09:33:06.639Z,87.00
2024-02-17T09:34:06.778Z,86.34
2024-02-17T09:35:06.799Z,88.12
2024-02-17T09:36:06.680Z,89.90
2024-02-17T09:37:06.752Z,84.25
2024-02-17T09:38:06.817Z,89.63
2024-02-17T09:39:06.837Z,89.34
2024-02-17T09:40:06.891Z,87.60
2024-02-17T09:41:06.931Z,89.28
2024-02-17T09:42:06.982Z,88.28
2024-02-17T09:43:07.117Z,87.95
2024-02-17T09:44:07.067Z,90.54
2024-02-17T09:45:07.182Z,87.68
2024-02-17T09:46:07.223Z,89.02
2024-02-17T09:47:07.212Z,86.97
2024-02-17T09:48:07.350Z,87.87
2024-02-17T09:49:08.013Z,88.51
2024-02-17T09:50:07.478Z,87.83
2024-02-17T09:51:07.435Z,85.96
2024-02-17T09:52:07.477Z,84.41
2024-02-17T09:53:07.559Z,84.07
2024-02-17T09:54:07.567Z,83.87
2024-02-17T09:55:07.612Z,86.06
2024-02-17T09:56:07.679Z,88.20
2024-02-17T09:57:07.767Z,83.64
2024-02-17T09:58:07.876Z,83.88
2024-02-17T09:59:07.842Z,82.07
2024-02-17T10:00:08.004Z,85.81
2024-02-17T10:01:08.039Z,82.39
2024-02-17T10:02:07.993Z,85.05
2024-02-17T10:03:08.098Z,78.18
2024-02-17T10:04:08.183Z,81.28
2024-02-17T10:05:08.332Z,80.20
2024-02-17T10:06:08.350Z,80.59
2024-02-17T10:07:08.220Z,77.06
2024-02-17T10:08:08.317Z,81.81
2024-02-17T10:09:08.337Z,82.11
2024-02-17T10:10:08.374Z,80.40
2024-02-17T10:11:08.414Z,83.03
2024-02-17T10:12:08.578Z,79.29
2024-02-17T10:13:08.558Z,80.46
2024-02-17T10:14:08.584Z,84.79
2024-02-17T10:15:08.681Z,84.70
2024-02-17T10:16:08.761Z,82.31
2024-02-17T10:17:08.740Z,82.51
2024-02-17T10:18:08.864Z,83.35
2024-02-17T10:19:08.910Z,84.99
2024-02-17T10:20:08.991Z,84.67
2024-02-17T10:21:08.906Z,86.77
2024-02-17T10:22:08.946Z,84.85
2024-02-17T10:23:09.014Z,84.46
2024-02-17T10:24:09.056Z,85.88
2024-02-17T10:25:09.111Z,81.55
2024-02-17T10:26:09.138Z,81.86
2024-02-17T10:27:09.223Z,84.11
2024-02-17T10:28:09.264Z,79.10
2024-02-17T10:29:09.275Z,82.82
2024-02-17T10:30:09.394Z,78.77
2024-02-17T10:31:09.437Z,82.03
2024-02-17T10:32:09.417Z,82.88
2024-02-17T10:33:09.676Z,80.71
2024-02-17T10:34:09.706Z,85.19
2024-02-17T10:35:09.637Z,80.38
2024-02-17T10:36:09.654Z,82.01
2024-02-17T10:37:09.654Z,83.94
2024-02-17T10:38:11.060Z,84.07
2024-02-17T10:39:09.784Z,82.78
2024-02-17T10:40:09.786Z,83.54
2024-02-17T10:41:09.908Z,80.20
2024-02-17T10:42:09.878Z,81.41
2024-02-17T10:43:09.986Z,82.24
2024-02-17T10:44:12.177Z,77.10
2024-02-17T10:45:10.191Z,76.63
2024-02-17T10:46:10.215Z,74.10
2024-02-17T10:47:10.137Z,75.40
2024-02-17T10:48:10.308Z,75.41
2024-02-17T10:49:10.306Z,79.71
2024-02-17T10:50:12.708Z,75.74
2024-02-17T10:51:10.258Z,75.92
2024-02-17T10:52:10.264Z,76.27
2024-02-17T10:53:10.280Z,74.75
2024-02-17T10:54:10.267Z,76.51
2024-02-17T10:55:10.269Z,72.96
2024-02-17T10:56:12.388Z,72.53
2024-02-17T10:57:10.319Z,72.56
2024-02-17T10:58:10.306Z,70.42
2024-02-17T10:59:10.362Z,69.69
2024-02-17T11:00:10.316Z,70.71
2024-02-17T11:01:10.326Z,69.36
2024-02-17T11:02:12.420Z,70.34
2024-02-17T11:03:10.348Z,72.59
2024-02-17T11:04:10.353Z,69.83
2024-02-17T11:05:10.352Z,71.76
2024-02-17T11:06:10.461Z,73.36
2024-02-17T11:07:10.432Z,73.87
2024-02-17T11:08:10.440Z,70.21
2024-02-17T11:09:12.578Z,66.08
2024-02-17T11:10:10.562Z,72.57
2024-02-17T11:11:10.565Z,70.29
2024-02-17T11:12:10.656Z,74.73
2024-02-17T11:13:10.704Z,67.98
2024-02-17T11:14:10.729Z,67.20
2024-02-17T11:15:11.099Z,67.41
2024-02-17T11:16:10.872Z,67.79
2024-02-17T11:17:10.865Z,66.15
2024-02-17T11:18:11.094Z,65.46
2024-02-17T11:19:11.231Z,67.77
2024-02-17T11:20:11.148Z,69.80
2024-02-17T11:21:11.096Z,69.79
2024-02-17T11:22:11.278Z,70.48
2024-02-17T11:23:11.160Z,68.28
2024-02-17T11:24:11.661Z,68.10
2024-02-17T11:25:11.278Z,68.37
2024-02-17T11:26:11.260Z,69.40
2024-02-17T11:27:11.322Z,67.47
2024-02-17T11:28:11.442Z,69.61
2024-02-17T11:29:11.399Z,68.34
2024-02-17T11:30:11.646Z,71.52
2024-02-17T11:31:11.583Z,71.48
2024-02-17T11:32:11.508Z,72.89
2024-02-17T11:33:11.605Z,70.19
2024-02-17T11:34:11.766Z,70.60
2024-02-17T11:35:11.756Z,74.97
2024-02-17T11:36:12.190Z,71.14
2024-02-17T11:37:11.785Z,70.45
2024-02-17T11:38:11.773Z,68.27
2024-02-17T11:39:13.758Z,70.61
2024-02-17T11:40:12.002Z,68.40
2024-02-17T11:41:11.883Z,70.58
2024-02-17T11:42:11.941Z,65.72
2024-02-17T11:43:11.986Z,65.42
2024-02-17T11:44:11.999Z,62.51
2024-02-17T11:45:12.095Z,65.70
2024-02-17T11:46:12.607Z,67.53
2024-02-17T11:47:12.108Z,65.03
2024-02-17T11:48:12.253Z,64.61
2024-02-17T11:49:12.334Z,64.42
2024-02-17T11:50:12.277Z,65.35
2024-02-17T11:51:12.295Z,70.95
2024-02-17T11:52:12.382Z,67.99
2024-02-17T11:53:12.365Z,65.95
2024-02-17T11:54:12.453Z,64.22
2024-02-17T11:55:12.429Z,64.19
2024-02-17T11:56:12.475Z,60.71
2024-02-17T11:57:12.536Z,57.62
2024-02-17T11:58:12.541Z,60.89
2024-02-17T11:59:12.580Z,60.19
2024-02-17T12:00:12.762Z,59.75
2024-02-17T12:01:12.737Z,60.84
2024-02-17T12:02:12.704Z,64.54
2024-02-17T12:03:12.767Z,65.54
2024-02-17T12:04:12.885Z,61.41
2024-02-17T12:05:12.863Z,61.99
2024-02-17T12:06:12.978Z,62.51
2024-02-17T12:07:13.024Z,63.04
2024-02-17T12:08:12.959Z,58.24
2024-02-17T12:09:12.975Z,58.71
2024-02-17T12:10:13.029Z,55.00
2024-02-17T12:11:13.115Z,57.69
2024-02-17T12:12:13.095Z,59.00
2024-02-17T12:13:13.177Z,61.27
2024-02-17T12:14:13.177Z,62.56
2024-02-17T12:15:13.291Z,60.32
2024-02-17T12:16:13.396Z,58.58
2024-02-17T12:17:13.303Z,55.43
2024-02-17T12:18:13.549Z,52.30
2024-02-17T12:19:13.760Z,52.81
2024-02-17T12:20:13.453Z,56.95
2024-02-17T12:21:13.529Z,59.96
2024-02-17T12:22:13.517Z,61.07
2024-02-17T12:23:13.553Z,59.54
2024-02-17T12:24:13.606Z,58.74
2024-02-17T12:25:13.609Z,56.65
2024-02-17T12:26:20.854Z,53.31
2024-02-17T12:27:14.709Z,53.36
2024-02-17T12:28:13.690Z,51.06
2024-02-17T12:29:13.684Z,52.34
2024-02-17T12:30:13.698Z,52.77
2024-02-17T12:31:13.714Z,50.10
2024-02-17T12:32:13.674Z,51.70
2024-02-17T12:33:13.887Z,54.65
2024-02-17T12:34:14.050Z,56.53
2024-02-17T12:35:14.018Z,59.11
2024-02-17T12:36:13.691Z,60.33
2024-02-17T12:37:13.693Z,59.93
2024-02-17T12:38:15.393Z,61.44
2024-02-17T12:39:13.707Z,63.17
2024-02-17T12:40:13.716Z,65.03
2024-02-17T12:41:13.697Z,60.81
2024-02-17T12:42:13.811Z,64.48
2024-02-17T12:43:13.724Z,64.85
2024-02-17T12:44:13.714Z,65.44